createdAt,value
2024-04-25T00:00:16.122Z,99.90
2024-04-25T00:02:44.537Z,99.90
2024-04-25T00:05:12.704Z,99.90
2024-04-25T00:07:40.587Z,99.90
2024-04-25T00:10:08.678Z,99.90
2024-04-25T00:12:36.630Z,99.90
2024-04-25T00:15:05.845Z,99.90
2024-04-25T00:17:33.795Z,99.90
2024-04-25T00:20:01.852Z,99.90
2024-04-25T00:22:29.776Z,99.90
2024-04-25T00:24:57.745Z,99.90
2024-04-25T00:27:25.940Z,99.90
2024-04-25T00:29:55.861Z,99.90
2024-04-25T00:32:24.369Z,99.90
2024-04-25T00:34:53.620Z,99.90
2024-04-25T00:37:21.585Z,99.90
2024-04-25T00:39:50.195Z,99.90
2024-04-25T00:42:25.948Z,99.90
2024-04-25T00:44:54.721Z,99.90
2024-04-25T00:47:25.165Z,99.90
2024-04-25T00:49:59.232Z,99.90
2024-04-25T00:52:28.042Z,99.90
2024-04-25T00:54:56.621Z,99.90
2024-04-25T00:57:29.122Z,99.90
2024-04-25T01:00:00.233Z,99.90
2024-04-25T01:02:31.836Z,99.90
2024-04-25T01:05:04.166Z,99.90
2024-04-25T01:07:32.181Z,99.90
2024-04-25T01:10:00.558Z,99.90
2024-04-25T01:12:32.713Z,99.90
2024-04-25T01:15:00.988Z,99.90
2024-04-25T01:17:32.608Z,99.90
2024-04-25T01:20:00.783Z,99.90
2024-04-25T01:22:37.359Z,99.90
2024-04-25T01:25:08.839Z,99.90
2024-04-25T01:27:37.978Z,99.90
2024-04-25T01:30:07.755Z,99.90
2024-04-25T01:32:37.493Z,99.90
2024-04-25T01:35:12.915Z,99.90
2024-04-25T01:37:41.324Z,99.90
2024-04-25T01:40:10.511Z,99.90
2024-04-25T01:42:38.659Z,99.90
2024-04-25T01:45:07.411Z,99.90
2024-04-25T01:50:03.999Z,99.90
2024-04-25T01:55:00.575Z,99.90
2024-04-25T01:57:28.735Z,99.90
2024-04-25T01:59:56.929Z,99.90
2024-04-25T02:02:24.940Z,99.90
2024-04-25T02:04:53.221Z,99.90
2024-04-25T02:07:21.791Z,99.90
2024-04-25T02:09:49.715Z,99.90
2024-04-25T02:12:19.745Z,99.90
2024-04-25T02:14:47.523Z,99.90
2024-04-25T02:17:16.375Z,99.90
2024-04-25T02:19:44.300Z,99.90
2024-04-25T02:22:31.236Z,99.90
2024-04-25T02:25:18.095Z,99.90
2024-04-25T02:27:47.042Z,99.90
2024-04-25T02:30:15.232Z,99.90
2024-04-25T02:32:44.027Z,99.90
2024-04-25T02:35:12.226Z,99.90
2024-04-25T02:37:40.611Z,99.90
2024-04-25T02:40:09.628Z,99.90
2024-04-25T02:42:37.864Z,99.90
2024-04-25T02:45:06.594Z,99.90
2024-04-25T02:47:35.007Z,99.90
2024-04-25T02:50:02.949Z,99.90
2024-04-25T02:52:30.847Z,99.90
2024-04-25T02:54:59.829Z,99.90
2024-04-25T03:07:21.379Z,99.90
2024-04-25T03:09:49.301Z,99.90
2024-04-25T03:12:17.474Z,99.90
2024-04-25T03:14:45.398Z,99.90
2024-04-25T03:17:13.289Z,99.90
2024-04-25T03:22:09.485Z,99.90
2024-04-25T03:24:37.576Z,99.90
2024-04-25T03:27:05.538Z,99.90
2024-04-25T03:32:02.541Z,99.90
2024-04-25T03:34:30.829Z,99.90
2024-04-25T03:36:59.418Z,99.90
2024-04-25T03:44:23.982Z,99.90
2024-04-25T03:46:52.248Z,99.90
2024-04-25T03:49:20.106Z,99.90
2024-04-25T03:51:48.451Z,99.90
2024-04-25T03:54:16.642Z,99.90
2024-04-25T03:56:44.500Z,99.90
2024-04-25T03:59:12.409Z,99.90
2024-04-25T04:01:40.646Z,99.90
2024-04-25T04:04:08.488Z,99.90
2024-04-25T04:06:36.424Z,99.90
2024-04-25T04:09:04.723Z,99.90
2024-04-25T04:11:32.631Z,99.90
2024-04-25T04:14:00.608Z,99.90
2024-04-25T04:16:28.726Z,99.90
2024-04-25T04:18:57.016Z,99.90
2024-04-25T04:21:26.091Z,99.90
2024-04-25T04:23:53.894Z,99.90
2024-04-25T04:26:21.756Z,99.90
2024-04-25T04:28:49.873Z,99.90
2024-04-25T04:31:17.978Z,99.90
2024-04-25T04:33:46.052Z,99.90
2024-04-25T04:36:14.108Z,99.90
2024-04-25T04:38:42.028Z,99.90
2024-04-25T04:41:10.432Z,99.90
2024-04-25T04:43:40.919Z,99.90
2024-04-25T04:46:10.038Z,99.90
2024-04-25T04:51:07.078Z,99.90
2024-04-25T04:53:35.316Z,99.90
2024-04-25T04:56:04.103Z,99.90
2024-04-25T04:58:32.269Z,99.90
2024-04-25T05:01:00.388Z,99.90
2024-04-25T05:03:28.425Z,99.90
2024-04-25T05:05:56.481Z,99.90
2024-04-25T05:08:24.865Z,99.90
2024-04-25T05:10:53.291Z,99.90
2024-04-25T05:13:21.329Z,99.90
2024-04-25T05:15:49.525Z,99.90
2024-04-25T05:18:17.902Z,99.90
2024-04-25T05:25:42.999Z,99.90
2024-04-25T05:38:05.391Z,99.90
2024-04-25T05:40:33.581Z,99.90
2024-04-25T05:43:01.725Z,99.90
2024-04-25T05:45:29.915Z,99.90
2024-04-25T05:47:59.027Z,99.90
2024-04-25T05:50:27.295Z,99.90
2024-04-25T05:52:55.133Z,99.90
2024-04-25T05:55:23.103Z,99.90
2024-04-25T05:57:51.006Z,99.90
2024-04-25T06:00:19.774Z,99.90
2024-04-25T06:02:47.871Z,99.90
2024-04-25T06:05:16.270Z,99.90
2024-04-25T06:07:44.422Z,99.90
2024-04-25T06:10:12.255Z,99.90
2024-04-25T06:12:40.694Z,99.90
2024-04-25T06:15:10.574Z,99.90
2024-04-25T06:17:44.341Z,99.90
2024-04-25T06:20:13.018Z,99.90
2024-04-25T06:22:41.052Z,99.90
2024-04-25T06:25:09.335Z,99.90
2024-04-25T06:27:37.471Z,99.90
2024-04-25T06:30:06.722Z,99.90
2024-04-25T06:32:37.739Z,99.90
2024-04-25T06:35:07.726Z,99.90
2024-04-25T06:37:36.101Z,99.90
2024-04-25T06:40:04.221Z,99.90
2024-04-25T06:42:32.069Z,99.90
2024-04-25T06:44:59.977Z,99.90
2024-04-25T06:47:27.972Z,99.90
2024-04-25T06:49:55.903Z,99.90
2024-04-25T06:52:24.496Z,99.90
2024-04-25T06:54:52.970Z,99.90
2024-04-25T06:57:20.940Z,99.90
2024-04-25T06:59:51.716Z,99.90
2024-04-25T07:02:21.472Z,99.90
2024-04-25T07:04:49.688Z,99.90
2024-04-25T07:07:17.832Z,99.90
2024-04-25T07:09:45.754Z,99.90
2024-04-25T07:12:13.687Z,99.90
2024-04-25T07:14:41.805Z,99.90
2024-04-25T07:17:09.931Z,99.90
2024-04-25T07:19:37.867Z,99.90
2024-04-25T07:22:06.174Z,99.90
2024-04-25T07:24:34.174Z,99.90
2024-04-25T07:27:02.215Z,99.90
2024-04-25T07:29:32.273Z,99.90
2024-04-25T07:32:02.247Z,99.90
2024-04-25T07:34:30.132Z,99.90
2024-04-25T07:36:58.043Z,99.90
2024-04-25T07:39:26.382Z,99.90
2024-04-25T07:41:54.432Z,99.90
2024-04-25T07:44:22.251Z,99.90
2024-04-25T07:46:50.874Z,99.90
2024-04-25T07:49:18.882Z,99.90
2024-04-25T07:51:46.761Z,99.90
2024-04-25T07:54:15.188Z,99.90
2024-04-25T07:56:43.098Z,99.90
2024-04-25T07:59:11.186Z,99.90
2024-04-25T08:01:39.084Z,99.90
2024-04-25T08:04:07.164Z,99.90
2024-04-25T08:06:36.012Z,99.90
2024-04-25T08:09:05.155Z,99.90
2024-04-25T08:11:33.399Z,99.90
2024-04-25T08:14:02.063Z,99.90
2024-04-25T08:16:31.162Z,99.90
2024-04-25T08:18:59.192Z,99.90
2024-04-25T08:21:27.068Z,99.90
2024-04-25T08:23:55.126Z,99.90
2024-04-25T08:26:26.375Z,99.90
2024-04-25T08:28:54.189Z,99.90
2024-04-25T08:31:22.104Z,99.90
2024-04-25T08:33:50.174Z,99.90
2024-04-25T08:36:18.640Z,99.90
2024-04-25T08:38:50.241Z,99.90
2024-04-25T08:41:19.886Z,99.90
2024-04-25T08:43:47.977Z,99.90
2024-04-25T08:46:18.747Z,99.90
2024-04-25T08:48:47.769Z,99.90
2024-04-25T08:51:20.964Z,99.90
2024-04-25T08:53:52.603Z,99.90
2024-04-25T08:56:24.687Z,99.90
2024-04-25T08:58:52.850Z,99.90
2024-04-25T09:01:22.337Z,99.90
2024-04-25T09:03:55.466Z,99.90
2024-04-25T09:06:24.173Z,99.90
2024-04-25T09:08:52.461Z,99.90
2024-04-25T09:11:25.925Z,99.80
2024-04-25T09:14:00.607Z,99.80
2024-04-25T09:16:28.620Z,99.70
2024-04-25T09:18:56.790Z,98.80
2024-04-25T09:21:24.856Z,98.60
2024-04-25T09:23:52.797Z,99.30
2024-04-25T09:26:23.629Z,99.30
2024-04-25T09:28:52.474Z,99.40
2024-04-25T09:31:21.505Z,99.60
2024-04-25T09:33:49.553Z,98.20
2024-04-25T09:36:18.310Z,97.60
2024-04-25T09:38:46.135Z,97.00
2024-04-25T09:41:15.703Z,97.50
2024-04-25T09:43:44.368Z,97.90
2024-04-25T09:46:17.540Z,97.20
2024-04-25T09:48:55.174Z,96.10
2024-04-25T09:51:38.274Z,95.60
2024-04-25T09:54:18.538Z,96.10
2024-04-25T09:56:51.950Z,95.70
2024-04-25T09:59:53.811Z,95.40
2024-04-25T10:02:23.962Z,95.60
2024-04-25T10:04:52.535Z,95.40
2024-04-25T10:07:22.415Z,95.10
2024-04-25T10:09:50.664Z,95.10
2024-04-25T10:12:27.649Z,95.40
2024-04-25T10:15:07.906Z,95.00
2024-04-25T10:17:39.534Z,95.00
2024-04-25T10:20:09.089Z,95.60
2024-04-25T10:22:41.938Z,95.10
2024-04-25T10:25:16.517Z,93.90
2024-04-25T10:27:46.369Z,93.80
2024-04-25T10:30:17.293Z,94.90
2024-04-25T10:32:45.624Z,95.40
2024-04-25T10:35:15.310Z,93.80
2024-04-25T10:37:45.265Z,93.80
2024-04-25T10:40:16.393Z,94.10
2024-04-25T10:42:45.147Z,93.70
2024-04-25T10:45:13.242Z,93.20
2024-04-25T10:47:41.281Z,95.00
2024-04-25T10:50:09.557Z,94.90
2024-04-25T10:52:37.450Z,95.40
2024-04-25T10:55:06.043Z,96.50
2024-04-25T10:57:33.931Z,96.50
2024-04-25T11:00:02.567Z,98.20
2024-04-25T11:02:39.304Z,98.40
2024-04-25T11:05:07.779Z,99.30
2024-04-25T11:07:40.591Z,98.50
2024-04-25T11:10:17.112Z,99.00
2024-04-25T11:12:46.298Z,99.60
2024-04-25T11:15:19.580Z,99.30
2024-04-25T11:17:59.872Z,98.10
2024-04-25T11:20:33.682Z,96.90
2024-04-25T11:23:21.383Z,97.70
2024-04-25T11:25:52.241Z,97.80
2024-04-25T11:28:20.930Z,98.30
2024-04-25T11:30:49.095Z,98.40
2024-04-25T11:33:24.059Z,97.40
2024-04-25T11:35:52.762Z,97.20
2024-04-25T11:38:21.053Z,95.80
2024-04-25T11:40:51.919Z,95.10
2024-04-25T11:43:21.440Z,95.70
2024-04-25T11:45:49.695Z,94.40
2024-04-25T11:48:21.943Z,94.20
2024-04-25T11:50:50.796Z,94.30
2024-04-25T11:53:18.885Z,93.90
2024-04-25T11:55:47.290Z,92.90
2024-04-25T11:58:15.632Z,93.30
2024-04-25T12:00:49.606Z,93.10
2024-04-25T12:03:18.561Z,92.60
2024-04-25T12:05:47.161Z,92.60
2024-04-25T12:08:15.858Z,92.30
2024-04-25T12:10:44.231Z,92.50
2024-04-25T12:13:12.490Z,92.40
2024-04-25T12:15:40.631Z,92.10
2024-04-25T12:18:09.453Z,92.30
2024-04-25T12:20:38.192Z,92.70
2024-04-25T12:23:06.280Z,93.00
2024-04-25T12:25:34.269Z,91.60
2024-04-25T12:28:02.128Z,90.50
2024-04-25T12:30:32.889Z,90.60
2024-04-25T12:33:01.328Z,90.20
2024-04-25T12:35:29.223Z,90.00
2024-04-25T12:37:58.273Z,91.30
2024-04-25T12:40:26.204Z,91.80
2024-04-25T12:42:54.264Z,91.90
2024-04-25T12:45:22.756Z,92.80
2024-04-25T12:47:51.581Z,92.40
2024-04-25T12:50:21.747Z,92.10
2024-04-25T12:52:50.085Z,92.90
2024-04-25T12:55:17.864Z,92.60
2024-04-25T12:57:45.872Z,92.50
2024-04-25T13:00:14.126Z,92.20
2024-04-25T13:02:42.054Z,92.00
2024-04-25T13:05:10.273Z,90.80
2024-04-25T13:07:38.575Z,92.10
2024-04-25T13:10:06.763Z,91.70
2024-04-25T13:12:34.720Z,90.20
2024-04-25T13:15:05.705Z,91.50
2024-04-25T13:17:37.190Z,92.90
2024-04-25T13:20:07.186Z,93.10
2024-04-25T13:22:35.212Z,92.70
2024-04-25T13:25:04.080Z,92.20
2024-04-25T13:27:32.152Z,92.20
2024-04-25T13:30:00.163Z,92.00
2024-04-25T13:32:28.830Z,90.30
2024-04-25T13:34:59.792Z,90.10
2024-04-25T13:37:28.174Z,91.20
2024-04-25T13:39:56.197Z,89.80
2024-04-25T13:42:24.285Z,89.20
2024-04-25T13:44:52.580Z,89.20
2024-04-25T13:47:20.744Z,86.80
2024-04-25T13:54:44.916Z,84.70
2024-04-25T13:57:13.578Z,86.10
2024-04-25T13:59:41.524Z,88.00
2024-04-25T14:02:09.746Z,87.70
2024-04-25T14:04:37.975Z,87.70
2024-04-25T14:07:08.509Z,88.20
2024-04-25T14:09:44.636Z,87.70
2024-04-25T14:14:40.878Z,86.20
2024-04-25T14:17:09.156Z,87.60
2024-04-25T14:19:37.438Z,86.80
2024-04-25T14:22:05.896Z,85.00
2024-04-25T14:27:23.471Z,85.50
2024-04-25T14:32:19.731Z,87.60
2024-04-25T14:34:49.409Z,89.30
2024-04-25T14:37:19.857Z,87.50
2024-04-25T14:39:47.872Z,87.10
2024-04-25T14:42:17.647Z,86.20
2024-04-25T14:44:49.025Z,87.10
2024-04-25T14:47:17.359Z,85.90
2024-04-25T14:49:45.387Z,86.20
2024-04-25T14:54:41.396Z,84.40
2024-04-25T14:57:09.566Z,86.80
2024-04-25T14:59:37.828Z,87.30
2024-04-25T15:02:06.719Z,86.80
2024-04-25T15:04:37.540Z,88.00
2024-04-25T15:07:06.154Z,87.30
2024-04-25T15:12:07.177Z,86.80
2024-04-25T15:14:37.514Z,84.50
2024-04-25T15:17:09.032Z,83.60
2024-04-25T15:19:40.874Z,82.80
2024-04-25T15:22:16.046Z,83.00
2024-04-25T15:29:45.823Z,85.60
2024-04-25T15:32:14.372Z,86.80
2024-04-25T15:34:42.229Z,87.20
2024-04-25T15:37:10.621Z,90.00
2024-04-25T15:47:04.487Z,91.30
2024-04-25T15:49:32.383Z,91.50
2024-04-25T15:59:26.496Z,91.80
2024-04-25T16:01:54.294Z,91.80
2024-04-25T16:04:22.609Z,91.50
2024-04-25T16:06:52.024Z,91.90
2024-04-25T16:09:20.311Z,91.60
2024-04-25T16:11:48.597Z,91.80
2024-04-25T16:16:47.115Z,92.40
2024-04-25T16:19:15.277Z,91.80
2024-04-25T16:21:45.217Z,91.80
2024-04-25T16:24:13.651Z,91.70
2024-04-25T16:26:41.605Z,92.60
2024-04-25T16:29:10.741Z,92.70
2024-04-25T16:31:38.690Z,92.60
2024-04-25T16:34:06.760Z,93.10
2024-04-25T16:39:05.255Z,92.80
2024-04-25T16:44:01.820Z,93.10
2024-04-25T16:51:30.088Z,92.80
2024-04-25T16:53:58.164Z,93.10
2024-04-25T16:56:26.256Z,93.10
2024-04-25T16:58:55.598Z,93.20
2024-04-25T17:01:23.450Z,93.70
2024-04-25T17:06:19.990Z,93.60
2024-04-25T17:08:48.375Z,93.30
2024-04-25T17:11:28.768Z,93.20
2024-04-25T17:14:05.294Z,93.60
2024-04-25T17:16:35.150Z,93.70
2024-04-25T17:24:07.749Z,94.20
2024-04-25T17:26:36.764Z,94.50
2024-04-25T17:36:32.862Z,94.90
2024-04-25T17:39:00.862Z,95.80
2024-04-25T17:41:28.852Z,95.60
2024-04-25T17:46:25.264Z,95.30
2024-04-25T17:48:53.289Z,95.50
2024-04-25T17:51:32.389Z,95.10
2024-04-25T17:54:00.785Z,95.10
2024-04-25T17:56:28.724Z,95.60
2024-04-25T17:58:56.649Z,95.70
2024-04-25T18:01:24.717Z,95.20
2024-04-25T18:03:52.526Z,95.20
2024-04-25T18:11:18.268Z,95.10
2024-04-25T18:16:21.326Z,95.10
2024-04-25T18:18:50.386Z,95.00
2024-04-25T18:31:14.956Z,95.40
2024-04-25T18:33:44.657Z,95.30
2024-04-25T18:36:19.912Z,95.30
2024-04-25T18:38:48.795Z,95.70
2024-04-25T18:41:17.765Z,95.90
2024-04-25T18:43:46.612Z,95.70
2024-04-25T18:46:15.133Z,96.50
2024-04-25T18:48:43.464Z,96.30
2024-04-25T18:53:40.306Z,97.10
2024-04-25T18:56:08.252Z,96.60
2024-04-25T19:01:04.434Z,96.80
2024-04-25T19:03:32.628Z,97.10
2024-04-25T19:06:00.949Z,97.50
2024-04-25T19:08:28.926Z,97.00
2024-04-25T19:10:57.316Z,97.40
2024-04-25T19:15:54.136Z,97.30
2024-04-25T19:18:26.108Z,97.40
2024-04-25T19:21:04.627Z,97.50
2024-04-25T19:28:29.723Z,97.10
2024-04-25T19:31:01.224Z,98.00
2024-04-25T19:35:57.530Z,97.10
2024-04-25T19:38:26.061Z,97.20
2024-04-25T19:40:54.801Z,97.80
2024-04-25T19:43:23.474Z,97.20
2024-04-25T19:48:20.027Z,97.10
2024-04-25T19:50:48.179Z,97.60
2024-04-25T19:53:16.939Z,97.10
2024-04-25T19:55:44.804Z,97.50
2024-04-25T19:58:12.624Z,97.40
2024-04-25T20:00:40.589Z,97.60
2024-04-25T20:03:08.608Z,97.70
2024-04-25T20:05:36.982Z,98.10
2024-04-25T20:08:05.052Z,98.10
2024-04-25T20:10:36.067Z,98.20
2024-04-25T20:13:04.419Z,98.00
2024-04-25T20:15:32.272Z,98.20
2024-04-25T20:18:19.382Z,98.90
2024-04-25T20:21:03.856Z,98.80
2024-04-25T20:23:46.612Z,98.60
2024-04-25T20:26:15.110Z,98.70
2024-04-25T20:28:44.001Z,98.80
2024-04-25T20:31:19.538Z,98.20
2024-04-25T20:33:48.088Z,99.10
2024-04-25T20:36:16.200Z,99.40
2024-04-25T20:38:46.205Z,99.10
2024-04-25T20:41:14.527Z,99.40
2024-04-25T20:43:43.205Z,99.10
2024-04-25T20:46:11.430Z,99.20
2024-04-25T20:48:42.337Z,99.00
2024-04-25T20:51:10.829Z,99.20
2024-04-25T20:53:42.793Z,99.40
2024-04-25T20:56:11.905Z,99.00
2024-04-25T20:58:39.830Z,98.90
2024-04-25T21:01:07.917Z,98.50
2024-04-25T21:03:36.054Z,98.80
2024-04-25T21:06:04.052Z,98.50
2024-04-25T21:08:32.940Z,98.60
2024-04-25T21:11:00.954Z,99.20
2024-04-25T21:13:31.490Z,99.00
2024-04-25T21:15:59.643Z,98.80
2024-04-25T21:18:27.849Z,98.70
2024-04-25T21:20:55.890Z,98.80
2024-04-25T21:23:23.889Z,99.00
2024-04-25T21:25:59.147Z,99.10
2024-04-25T21:28:29.972Z,98.70
2024-04-25T21:30:58.087Z,99.70
2024-04-25T21:33:26.456Z,99.30
2024-04-25T21:35:54.608Z,99.40
2024-04-25T21:38:23.137Z,99.30
2024-04-25T21:40:51.093Z,99.20
2024-04-25T21:43:19.276Z,99.90
2024-04-25T21:45:47.133Z,99.10
2024-04-25T21:48:16.470Z,99.70
2024-04-25T21:50:44.548Z,99.50
2024-04-25T21:53:12.622Z,99.90
2024-04-25T21:55:40.644Z,99.60
2024-04-25T21:58:08.729Z,99.90
2024-04-25T22:00:36.667Z,99.80
2024-04-25T22:03:04.950Z,99.70
2024-04-25T22:05:32.867Z,99.90
2024-04-25T22:08:01.113Z,99.90
2024-04-25T22:10:28.986Z,99.90
2024-04-25T22:12:58.873Z,99.90
2024-04-25T22:15:28.335Z,99.90
2024-04-25T22:17:56.333Z,99.90
2024-04-25T22:20:24.330Z,99.90
2024-04-25T22:22:52.311Z,99.80
2024-04-25T22:25:20.300Z,99.80
2024-04-25T22:27:48.483Z,99.90
2024-04-25T22:30:16.820Z,99.90
2024-04-25T22:32:45.053Z,99.70
2024-04-25T22:35:13.218Z,99.50
2024-04-25T22:37:44.525Z,99.60
2024-04-25T22:40:12.589Z,99.90
2024-04-25T22:42:42.032Z,99.90
2024-04-25T22:45:15.755Z,99.80
2024-04-25T22:47:47.726Z,99.90
2024-04-25T22:50:15.878Z,99.90
2024-04-25T22:52:43.896Z,99.90
2024-04-25T22:55:11.729Z,99.90
2024-04-25T22:57:40.152Z,99.90
2024-04-25T23:00:09.214Z,99.90
2024-04-25T23:02:37.261Z,99.40
2024-04-25T23:05:05.535Z,99.20
2024-04-25T23:07:33.921Z,99.20
2024-04-25T23:10:02.737Z,99.80
2024-04-25T23:12:30.591Z,99.90
2024-04-25T23:14:58.844Z,99.90
2024-04-25T23:17:27.094Z,99.00
2024-04-25T23:19:55.513Z,99.80
2024-04-25T23:22:24.028Z,99.90
2024-04-25T23:24:52.216Z,99.90
2024-04-25T23:27:20.363Z,99.90
2024-04-25T23:29:48.752Z,99.90
2024-04-25T23:32:16.725Z,99.90
2024-04-25T23:34:44.821Z,99.90
2024-04-25T23:37:13.315Z,99.90
2024-04-25T23:39:41.667Z,99.90
2024-04-25T23:42:11.270Z,99.90
2024-04-25T23:44:39.542Z,99.90
2024-04-25T23:47:08.326Z,99.90
2024-04-25T23:49:36.404Z,99.90
2024-04-25T23:52:04.528Z,99.90
2024-04-25T23:54:32.360Z,99.90
2024-04-25T23:57:00.392Z,99.90
2024-04-25T23:59:28.517Z,99.90
